createdAt,value
2017-12-12T00:00:26.470Z,2.10
2017-12-12T00:02:54.720Z,0.67
2017-12-12T00:05:22.983Z,0.80
2017-12-12T00:07:51.260Z,1.17
2017-12-12T00:10:19.835Z,2.07
2017-12-12T00:12:48.142Z,0.70
2017-12-12T00:15:16.408Z,0.67
2017-12-12T00:17:44.660Z,1.00
2017-12-12T00:20:12.910Z,1.00
2017-12-12T00:22:42.999Z,0.50
2017-12-12T00:25:11.285Z,0.80
2017-12-12T00:27:39.542Z,0.73
2017-12-12T00:30:08.354Z,0.63
2017-12-12T00:32:36.611Z,1.03
2017-12-12T00:35:04.915Z,1.50
2017-12-12T00:37:33.196Z,0.83
2017-12-12T00:40:01.458Z,1.03
2017-12-12T00:42:29.724Z,1.23
2017-12-12T00:44:57.969Z,0.63
2017-12-12T00:47:26.221Z,0.97
2017-12-12T00:49:54.462Z,1.27
2017-12-12T00:52:22.770Z,1.90
2017-12-12T00:54:51.046Z,0.93
2017-12-12T00:57:19.304Z,0.80
2017-12-12T00:59:47.550Z,0.80
2017-12-12T01:02:15.888Z,0.70
2017-12-12T01:04:44.135Z,0.60
2017-12-12T01:07:12.419Z,0.70
2017-12-12T01:09:41.445Z,0.70
2017-12-12T01:12:09.844Z,0.80
2017-12-12T01:14:38.119Z,0.90
2017-12-12T01:17:06.368Z,1.20
2017-12-12T01:19:34.611Z,1.07
2017-12-12T01:22:02.872Z,4.40
2017-12-12T01:24:31.108Z,1.23
2017-12-12T01:26:59.384Z,0.60
2017-12-12T01:29:28.419Z,1.00
2017-12-12T01:31:56.695Z,0.93
2017-12-12T01:34:24.977Z,0.77
2017-12-12T01:36:54.027Z,0.73
2017-12-12T01:39:23.032Z,1.40
2017-12-12T01:41:52.080Z,0.70
2017-12-12T01:44:20.314Z,0.70
2017-12-12T01:46:49.359Z,1.50
2017-12-12T01:49:17.661Z,0.50
2017-12-12T01:51:46.016Z,1.13
2017-12-12T01:54:14.298Z,0.70
2017-12-12T01:56:42.555Z,0.70
2017-12-12T01:59:10.799Z,0.93
2017-12-12T02:01:39.130Z,0.63
2017-12-12T02:04:07.373Z,0.50
2017-12-12T02:06:36.403Z,0.60
2017-12-12T02:09:04.656Z,0.60
2017-12-12T02:11:33.716Z,1.10
2017-12-12T02:14:01.959Z,1.13
2017-12-12T02:16:30.222Z,1.03
2017-12-12T02:18:59.233Z,0.80
2017-12-12T02:21:28.267Z,1.40
2017-12-12T02:23:56.540Z,1.20
2017-12-12T02:26:24.870Z,2.40
2017-12-12T02:28:53.886Z,1.50
2017-12-12T02:31:22.908Z,1.73
2017-12-12T02:33:51.147Z,1.90
2017-12-12T02:36:19.563Z,3.53
2017-12-12T02:38:48.584Z,2.00
2017-12-12T02:41:16.826Z,2.50
2017-12-12T02:43:45.842Z,2.57
2017-12-12T02:46:14.097Z,3.00
2017-12-12T02:48:42.359Z,3.10
2017-12-12T02:51:10.602Z,2.73
2017-12-12T02:53:38.891Z,5.20
2017-12-12T02:56:07.130Z,2.70
2017-12-12T02:58:36.172Z,3.60
2017-12-12T03:01:04.413Z,3.40
2017-12-12T03:03:32.690Z,3.17
2017-12-12T03:06:01.733Z,3.70
2017-12-12T03:08:30.009Z,4.63
2017-12-12T03:10:58.286Z,3.87
2017-12-12T03:13:26.571Z,4.00
2017-12-12T03:15:54.858Z,3.30
2017-12-12T03:18:23.127Z,4.20
2017-12-12T03:20:51.426Z,4.13
2017-12-12T03:23:19.706Z,3.70
2017-12-12T03:25:47.990Z,4.10
2017-12-12T03:28:16.309Z,3.25
2017-12-12T03:30:44.556Z,3.40
2017-12-12T03:33:12.947Z,2.80
2017-12-12T03:35:41.192Z,4.43
2017-12-12T03:38:09.456Z,4.20
2017-12-12T03:40:38.470Z,4.18
2017-12-12T03:43:06.804Z,3.50
2017-12-12T03:45:35.049Z,5.35
2017-12-12T03:48:03.347Z,3.83
2017-12-12T03:50:31.587Z,3.50
2017-12-12T03:53:00.620Z,2.00
2017-12-12T03:55:28.915Z,2.47
2017-12-12T03:57:57.165Z,2.33
2017-12-12T04:00:25.480Z,6.65
2017-12-12T04:02:53.754Z,3.23
2017-12-12T04:05:22.017Z,3.03
2017-12-12T04:07:50.317Z,3.13
2017-12-12T04:10:18.692Z,3.40
2017-12-12T04:12:46.959Z,3.03
2017-12-12T04:15:15.342Z,3.23
2017-12-12T04:17:43.592Z,4.43
2017-12-12T04:20:12.619Z,4.50
2017-12-12T04:22:40.869Z,4.20
2017-12-12T04:25:09.303Z,4.43
2017-12-12T04:27:37.560Z,3.80
2017-12-12T04:30:05.855Z,6.30
2017-12-12T04:32:34.112Z,4.75
2017-12-12T04:35:02.424Z,4.60
2017-12-12T04:37:30.979Z,5.70
2017-12-12T04:39:59.212Z,5.40
2017-12-12T04:42:27.478Z,6.43
2017-12-12T04:44:55.753Z,5.70
2017-12-12T04:47:24.040Z,5.82
2017-12-12T04:49:52.312Z,7.07
2017-12-12T04:52:20.584Z,4.40
2017-12-12T04:54:48.874Z,5.05
2017-12-12T04:57:17.129Z,7.15
2017-12-12T04:59:45.395Z,6.77
2017-12-12T05:02:14.442Z,4.33
2017-12-12T05:04:42.703Z,5.22
2017-12-12T05:07:11.001Z,8.75
2017-12-12T05:09:39.264Z,5.73
2017-12-12T05:12:07.563Z,4.90
2017-12-12T05:14:35.833Z,6.17
2017-12-12T05:17:04.086Z,5.07
2017-12-12T05:19:33.134Z,4.93
2017-12-12T05:22:01.395Z,6.15
2017-12-12T05:24:29.640Z,4.85
2017-12-12T05:26:58.798Z,4.77
2017-12-12T05:29:27.071Z,4.57
2017-12-12T05:31:55.359Z,4.68
2017-12-12T05:34:23.604Z,3.55
2017-12-12T05:36:51.872Z,3.97
2017-12-12T05:39:20.884Z,4.60
2017-12-12T05:41:49.198Z,5.20
2017-12-12T05:44:17.448Z,5.18
2017-12-12T05:46:56.319Z,4.53
2017-12-12T05:49:28.679Z,4.62
2017-12-12T05:51:57.263Z,4.85
2017-12-12T05:54:25.539Z,4.20
2017-12-12T05:56:53.821Z,3.85
2017-12-12T05:59:22.089Z,3.90
2017-12-12T06:01:50.361Z,4.40
2017-12-12T06:04:18.674Z,3.97
2017-12-12T06:06:46.943Z,4.75
2017-12-12T06:09:15.197Z,6.22
2017-12-12T06:11:44.357Z,4.53
2017-12-12T06:14:12.624Z,3.60
2017-12-12T06:16:40.906Z,3.95
2017-12-12T06:19:09.330Z,3.90
2017-12-12T06:21:37.687Z,4.47
2017-12-12T06:24:05.942Z,9.53
2017-12-12T06:26:34.217Z,18.77
2017-12-12T06:29:02.521Z,15.27
2017-12-12T06:31:30.795Z,4.97
2017-12-12T06:33:59.053Z,3.92
2017-12-12T06:36:27.316Z,3.90
2017-12-12T06:38:56.357Z,3.23
2017-12-12T06:41:24.648Z,4.80
2017-12-12T06:43:52.913Z,4.17
2017-12-12T06:46:21.194Z,4.25
2017-12-12T06:48:49.484Z,4.20
2017-12-12T06:51:17.781Z,4.57
2017-12-12T06:53:46.046Z,4.00
2017-12-12T06:56:14.351Z,7.85
2017-12-12T06:58:42.652Z,3.93
2017-12-12T07:01:10.993Z,4.50
2017-12-12T07:03:39.320Z,5.10
2017-12-12T07:06:07.659Z,4.37
2017-12-12T07:08:35.916Z,3.57
2017-12-12T07:11:04.168Z,4.23
2017-12-12T07:13:33.334Z,4.03
2017-12-12T07:16:02.140Z,4.27
2017-12-12T07:18:30.399Z,4.27
2017-12-12T07:20:58.691Z,3.60
2017-12-12T07:23:27.052Z,3.45
2017-12-12T07:25:55.452Z,4.70
2017-12-12T07:28:23.716Z,5.43
2017-12-12T07:30:52.368Z,3.85
2017-12-12T07:33:20.673Z,4.43
2017-12-12T07:35:48.921Z,4.27
2017-12-12T07:38:17.955Z,5.53
2017-12-12T07:40:46.197Z,3.93
2017-12-12T07:43:14.548Z,3.23
2017-12-12T07:45:42.799Z,5.23
2017-12-12T07:48:11.096Z,5.93
2017-12-12T07:50:39.340Z,6.60
2017-12-12T07:53:08.363Z,7.03
2017-12-12T07:55:36.658Z,6.87
2017-12-12T07:58:04.932Z,10.53
2017-12-12T08:00:33.167Z,4.90
2017-12-12T08:03:02.210Z,3.10
2017-12-12T08:05:30.448Z,4.33
2017-12-12T08:07:59.471Z,4.20
2017-12-12T08:10:27.768Z,3.50
2017-12-12T08:12:56.057Z,4.20
2017-12-12T08:15:24.291Z,3.83
2017-12-12T08:17:53.327Z,4.37
2017-12-12T08:20:23.756Z,5.43
2017-12-12T08:22:52.017Z,3.20
2017-12-12T08:25:20.330Z,4.90
2017-12-12T08:27:48.605Z,3.53
2017-12-12T08:30:16.863Z,3.40
2017-12-12T08:32:45.162Z,3.00
2017-12-12T08:35:13.447Z,6.73
2017-12-12T08:37:41.702Z,3.00
2017-12-12T08:40:10.739Z,4.60
2017-12-12T08:42:38.983Z,3.80
2017-12-12T08:45:07.342Z,4.97
2017-12-12T08:47:36.386Z,4.03
2017-12-12T08:50:04.652Z,3.90
2017-12-12T08:52:33.692Z,7.03
2017-12-12T08:55:01.954Z,3.67
2017-12-12T08:57:30.222Z,5.07
2017-12-12T08:59:58.486Z,3.93
2017-12-12T09:02:26.731Z,4.03
2017-12-12T09:04:55.791Z,5.17
2017-12-12T09:07:24.075Z,3.70
2017-12-12T09:09:52.446Z,4.90
2017-12-12T09:12:20.713Z,3.27
2017-12-12T09:14:48.978Z,4.10
2017-12-12T09:17:17.992Z,3.77
2017-12-12T09:19:46.268Z,5.77
2017-12-12T09:22:14.509Z,4.50
2017-12-12T09:24:42.855Z,5.23
2017-12-12T09:27:11.132Z,6.07
2017-12-12T09:29:39.390Z,6.87
2017-12-12T09:32:07.703Z,6.47
2017-12-12T09:34:35.963Z,5.60
2017-12-12T09:37:04.214Z,4.90
2017-12-12T09:39:33.377Z,5.07
2017-12-12T09:42:01.673Z,6.50
2017-12-12T09:44:30.036Z,6.03
2017-12-12T09:46:58.306Z,6.37
2017-12-12T09:49:26.581Z,6.10
2017-12-12T09:51:54.822Z,5.43
2017-12-12T09:54:23.165Z,5.33
2017-12-12T09:56:51.443Z,5.77
2017-12-12T09:59:19.698Z,3.80
2017-12-12T10:01:47.993Z,4.93
2017-12-12T10:04:16.247Z,10.40
2017-12-12T10:06:44.549Z,5.73
2017-12-12T10:09:12.821Z,7.50
2017-12-12T10:11:41.116Z,5.00
2017-12-12T10:14:09.374Z,8.10
2017-12-12T10:16:37.629Z,5.33
2017-12-12T10:19:05.870Z,3.30
2017-12-12T10:21:34.126Z,4.10
2017-12-12T10:24:03.147Z,4.53
2017-12-12T10:26:31.392Z,4.23
2017-12-12T10:28:59.664Z,7.90
2017-12-12T10:31:27.899Z,3.50
2017-12-12T10:33:56.186Z,4.73
2017-12-12T10:36:24.450Z,3.10
2017-12-12T10:38:52.742Z,4.40
2017-12-12T10:41:21.003Z,3.20
2017-12-12T10:43:49.255Z,4.30
2017-12-12T10:46:17.632Z,5.60
2017-12-12T10:48:45.859Z,3.50
2017-12-12T10:51:14.126Z,4.80
2017-12-12T10:53:42.443Z,5.17
2017-12-12T10:56:10.735Z,4.20
2017-12-12T10:58:38.991Z,5.13
2017-12-12T11:01:07.266Z,2.40
2017-12-12T11:03:35.517Z,2.40
2017-12-12T11:06:04.526Z,5.87
2017-12-12T11:08:32.840Z,4.63
2017-12-12T11:11:01.085Z,4.03
2017-12-12T11:13:30.098Z,4.50
2017-12-12T11:15:58.336Z,4.83
2017-12-12T11:18:26.684Z,2.30
2017-12-12T11:20:54.928Z,2.93
2017-12-12T11:23:24.062Z,2.83
2017-12-12T11:25:52.303Z,9.33
2017-12-12T11:28:21.349Z,4.53
2017-12-12T11:30:49.596Z,3.70
2017-12-12T11:33:18.835Z,2.67
2017-12-12T11:35:47.077Z,2.77
2017-12-12T11:38:15.349Z,4.10
2017-12-12T11:40:44.351Z,6.73
2017-12-12T11:43:13.372Z,4.20
2017-12-12T11:45:41.622Z,4.20
2017-12-12T11:48:10.644Z,7.03
2017-12-12T11:50:38.943Z,3.83
2017-12-12T11:53:07.192Z,2.50
2017-12-12T11:55:36.254Z,5.10
2017-12-12T11:58:05.392Z,3.90
2017-12-12T12:00:34.406Z,3.60
2017-12-12T12:03:02.651Z,3.07
2017-12-12T12:05:30.913Z,2.40
2017-12-12T12:07:59.162Z,3.63
2017-12-12T12:10:27.447Z,2.63
2017-12-12T12:12:55.691Z,2.50
2017-12-12T12:15:24.734Z,4.47
2017-12-12T12:17:53.070Z,2.77
2017-12-12T12:20:21.317Z,4.77
2017-12-12T12:22:49.579Z,3.60
2017-12-12T12:25:17.830Z,4.00
2017-12-12T12:27:46.072Z,2.77
2017-12-12T12:30:15.139Z,2.77
2017-12-12T12:32:43.414Z,3.20
2017-12-12T12:35:11.704Z,7.53
2017-12-12T12:37:39.942Z,2.73
2017-12-12T12:40:08.961Z,2.93
2017-12-12T12:42:37.216Z,4.80
2017-12-12T12:45:06.220Z,3.20
2017-12-12T12:47:35.242Z,3.73
2017-12-12T12:50:03.488Z,3.00
2017-12-12T12:52:31.743Z,4.70
2017-12-12T12:54:59.984Z,4.50
2017-12-12T12:57:28.247Z,3.63
2017-12-12T12:59:57.267Z,5.13
2017-12-12T13:02:25.523Z,3.50
2017-12-12T13:04:54.535Z,4.43
2017-12-12T13:07:22.797Z,4.57
2017-12-12T13:09:51.046Z,5.60
2017-12-12T13:12:19.398Z,3.90
2017-12-12T13:14:47.630Z,2.93
2017-12-12T13:17:16.655Z,3.07
2017-12-12T13:19:44.962Z,6.70
2017-12-12T13:22:13.223Z,2.73
2017-12-12T13:24:41.461Z,4.30
2017-12-12T13:27:09.722Z,3.70
2017-12-12T13:29:37.964Z,3.20
2017-12-12T13:32:06.231Z,8.20
2017-12-12T13:34:35.404Z,4.03
2017-12-12T13:37:03.619Z,4.80
2017-12-12T13:39:31.891Z,5.43
2017-12-12T13:42:00.955Z,6.90
2017-12-12T13:44:29.215Z,5.17
2017-12-12T13:46:57.464Z,4.03
2017-12-12T13:49:26.537Z,4.40
2017-12-12T13:51:54.789Z,3.60
2017-12-12T13:54:23.053Z,4.10
2017-12-12T13:56:51.449Z,4.73
2017-12-12T13:59:19.701Z,5.00
2017-12-12T14:01:47.940Z,4.70
2017-12-12T14:04:16.485Z,5.67
2017-12-12T14:06:44.778Z,4.67
2017-12-12T14:09:13.031Z,3.33
2017-12-12T14:11:41.277Z,3.63
2017-12-12T14:14:10.302Z,2.40
2017-12-12T14:16:38.555Z,4.47
2017-12-12T14:19:06.826Z,4.33
2017-12-12T14:21:35.066Z,3.23
2017-12-12T14:24:03.311Z,4.37
2017-12-12T14:26:32.366Z,2.80
2017-12-12T14:29:00.607Z,2.80
2017-12-12T14:31:29.730Z,3.63
2017-12-12T14:33:58.019Z,3.93
2017-12-12T14:36:26.330Z,7.07
2017-12-12T14:38:54.568Z,4.07
2017-12-12T14:41:22.824Z,3.80
2017-12-12T14:43:51.841Z,4.87
2017-12-12T14:46:20.104Z,4.20
2017-12-12T14:48:49.106Z,3.67
2017-12-12T14:51:18.143Z,5.37
2017-12-12T14:53:46.664Z,3.53
2017-12-12T14:56:15.252Z,4.30
2017-12-12T14:58:43.807Z,5.10
2017-12-12T15:01:12.245Z,4.07
2017-12-12T15:03:40.712Z,7.00
2017-12-12T15:06:10.070Z,6.20
2017-12-12T15:08:38.606Z,4.00
2017-12-12T15:11:07.852Z,7.20
2017-12-12T15:13:36.243Z,7.17
2017-12-12T15:16:04.548Z,11.33
2017-12-12T15:18:32.788Z,4.27
2017-12-12T15:21:01.816Z,7.87
2017-12-12T15:23:30.055Z,5.77
2017-12-12T15:25:59.071Z,4.70
2017-12-12T15:28:28.094Z,6.53
2017-12-12T15:30:56.339Z,3.20
2017-12-12T15:33:25.447Z,5.93
2017-12-12T15:35:53.764Z,6.90
2017-12-12T15:38:22.018Z,4.90
2017-12-12T15:40:50.327Z,6.33
2017-12-12T15:43:18.587Z,7.83
2017-12-12T15:45:46.835Z,3.53
2017-12-12T15:48:15.853Z,7.17
2017-12-12T15:50:44.097Z,6.63
2017-12-12T15:53:12.334Z,5.23
2017-12-12T15:55:40.578Z,9.00
2017-12-12T15:58:09.618Z,6.50
2017-12-12T16:00:37.859Z,5.20
2017-12-12T16:03:06.893Z,6.23
2017-12-12T16:05:35.150Z,8.83
2017-12-12T16:08:03.461Z,4.87
2017-12-12T16:10:31.820Z,4.60
2017-12-12T16:13:00.884Z,4.77
2017-12-12T16:15:29.111Z,3.80
2017-12-12T16:17:57.356Z,3.97
2017-12-12T16:20:25.647Z,5.10
2017-12-12T16:22:53.865Z,3.27
2017-12-12T16:25:22.139Z,8.90
2017-12-12T16:27:50.376Z,5.40
2017-12-12T16:30:18.641Z,5.80
2017-12-12T16:32:47.143Z,5.33
2017-12-12T16:35:15.390Z,4.23
2017-12-12T16:37:43.627Z,10.13
2017-12-12T16:40:11.900Z,5.37
2017-12-12T16:42:40.934Z,5.20
2017-12-12T16:45:10.003Z,4.43
2017-12-12T16:47:38.262Z,6.13
2017-12-12T16:50:08.048Z,6.50
2017-12-12T16:52:36.299Z,5.90
2017-12-12T16:55:04.541Z,5.87
2017-12-12T16:57:32.790Z,5.63
2017-12-12T17:00:01.074Z,16.00
2017-12-12T17:02:29.338Z,3.45
2017-12-12T17:04:57.593Z,4.20
2017-12-12T17:07:25.863Z,4.53
2017-12-12T17:09:54.948Z,7.57
2017-12-12T17:12:23.182Z,8.00
2017-12-12T17:14:51.437Z,4.40
2017-12-12T17:17:19.739Z,7.10
2017-12-12T17:19:47.995Z,5.00
2017-12-12T17:22:16.254Z,12.83
2017-12-12T17:24:45.276Z,9.13
2017-12-12T17:27:13.612Z,4.20
2017-12-12T17:29:41.834Z,4.77
2017-12-12T17:32:10.101Z,4.22
2017-12-12T17:34:39.123Z,7.00
2017-12-12T17:37:07.359Z,8.13
2017-12-12T17:39:35.683Z,8.33
2017-12-12T17:42:03.885Z,8.00
2017-12-12T17:44:32.154Z,6.30
2017-12-12T17:47:00.453Z,8.23
2017-12-12T17:49:28.732Z,6.67
2017-12-12T17:51:57.006Z,6.20
2017-12-12T17:54:25.274Z,10.23
2017-12-12T17:56:53.587Z,7.65
2017-12-12T17:59:21.848Z,5.40
2017-12-12T18:01:50.101Z,8.90
2017-12-12T18:04:19.127Z,7.63
2017-12-12T18:06:47.447Z,6.93
2017-12-12T18:09:15.792Z,6.57
2017-12-12T18:11:44.042Z,8.00
2017-12-12T18:14:13.056Z,9.13
2017-12-12T18:16:41.290Z,7.47
2017-12-12T18:19:09.723Z,5.00
2017-12-12T18:21:41.052Z,5.30
2017-12-12T18:24:09.517Z,5.23
2017-12-12T18:26:37.762Z,6.60
2017-12-12T18:29:06.006Z,4.47
2017-12-12T18:31:35.019Z,5.63
2017-12-12T18:34:03.274Z,5.83
2017-12-12T18:36:31.526Z,7.53
2017-12-12T18:38:59.779Z,5.07
2017-12-12T18:41:28.068Z,6.83
2017-12-12T18:43:56.347Z,4.20
2017-12-12T18:46:24.621Z,6.00
2017-12-12T18:48:52.874Z,3.87
2017-12-12T18:51:22.185Z,4.40
2017-12-12T18:53:50.527Z,5.40
2017-12-12T18:56:18.761Z,8.60
2017-12-12T18:58:47.015Z,5.53
2017-12-12T19:01:17.656Z,4.73
2017-12-12T19:03:46.659Z,7.67
2017-12-12T19:06:14.923Z,3.77
2017-12-12T19:08:43.962Z,11.80
2017-12-12T19:11:12.228Z,5.50
2017-12-12T19:13:40.476Z,4.73
2017-12-12T19:16:09.496Z,5.00
2017-12-12T19:18:37.768Z,4.47
2017-12-12T19:21:06.771Z,4.67
2017-12-12T19:23:35.806Z,5.33
2017-12-12T19:26:04.048Z,7.67
2017-12-12T19:28:33.072Z,6.37
2017-12-12T19:31:01.333Z,6.60
2017-12-12T19:33:30.384Z,5.37
2017-12-12T19:35:58.628Z,6.90
2017-12-12T19:38:26.903Z,4.62
2017-12-12T19:40:55.922Z,12.60
2017-12-12T19:43:24.219Z,5.32
2017-12-12T19:45:52.538Z,7.67
2017-12-12T19:48:21.570Z,7.53
2017-12-12T19:50:49.886Z,8.10
2017-12-12T19:53:18.143Z,5.33
2017-12-12T19:55:46.408Z,5.00
2017-12-12T19:58:14.667Z,7.27
2017-12-12T20:00:42.911Z,7.60
2017-12-12T20:03:11.295Z,7.40
2017-12-12T20:05:39.539Z,6.53
2017-12-12T20:08:07.815Z,5.22
2017-12-12T20:10:36.076Z,6.33
2017-12-12T20:13:05.085Z,6.53
2017-12-12T20:15:33.362Z,6.65
2017-12-12T20:18:01.634Z,12.20
2017-12-12T20:20:31.292Z,7.23
2017-12-12T20:22:59.539Z,5.85
2017-12-12T20:25:27.859Z,6.25
2017-12-12T20:27:56.099Z,7.40
2017-12-12T20:30:24.412Z,5.50
2017-12-12T20:32:52.650Z,7.47
2017-12-12T20:35:21.690Z,5.65
2017-12-12T20:37:49.991Z,6.40
2017-12-12T20:40:18.270Z,4.55
2017-12-12T20:42:46.526Z,5.50
2017-12-12T20:45:14.802Z,8.00
2017-12-12T20:47:43.060Z,7.10
2017-12-12T20:50:12.094Z,6.97
2017-12-12T20:52:40.363Z,5.70
2017-12-12T20:55:08.619Z,4.97
2017-12-12T20:57:37.649Z,6.70
2017-12-12T21:00:05.892Z,6.73
2017-12-12T21:02:34.930Z,8.60
2017-12-12T21:05:03.214Z,5.97
2017-12-12T21:07:36.324Z,8.10
2017-12-12T21:10:04.622Z,5.27
2017-12-12T21:12:32.988Z,6.72
2017-12-12T21:15:01.237Z,8.95
2017-12-12T21:17:29.502Z,4.90
2017-12-12T21:19:57.774Z,4.47
2017-12-12T21:22:26.814Z,7.10
2017-12-12T21:24:55.114Z,6.70
2017-12-12T21:27:23.391Z,5.70
2017-12-12T21:29:51.635Z,6.97
2017-12-12T21:32:19.903Z,6.82
2017-12-12T21:34:48.183Z,9.70
2017-12-12T21:37:16.463Z,7.03
2017-12-12T21:39:44.800Z,6.90
2017-12-12T21:42:13.176Z,5.47
2017-12-12T21:44:41.451Z,8.02
2017-12-12T21:47:09.711Z,5.70
2017-12-12T21:49:37.975Z,8.65
2017-12-12T21:52:06.243Z,7.65
2017-12-12T21:54:35.695Z,4.93
2017-12-12T21:57:04.524Z,8.85
2017-12-12T21:59:33.213Z,5.53
2017-12-12T22:02:02.009Z,10.90
2017-12-12T22:04:31.214Z,5.80
2017-12-12T22:06:59.464Z,6.45
2017-12-12T22:09:27.750Z,5.85
2017-12-12T22:11:56.005Z,8.93
2017-12-12T22:14:24.263Z,6.07
2017-12-12T22:16:52.590Z,10.20
2017-12-12T22:19:20.835Z,9.40
2017-12-12T22:21:49.154Z,10.95
2017-12-12T22:24:17.399Z,9.57
2017-12-12T22:26:45.710Z,9.90
2017-12-12T22:29:14.967Z,7.97
2017-12-12T22:31:43.997Z,10.23
2017-12-12T22:34:12.248Z,8.20
2017-12-12T22:36:41.783Z,9.02
2017-12-12T22:39:10.116Z,12.57
2017-12-12T22:41:38.389Z,8.85
2017-12-12T22:44:06.879Z,8.65
2017-12-12T22:46:36.670Z,9.60
2017-12-12T22:49:04.924Z,15.20
2017-12-12T22:51:33.233Z,10.70
2017-12-12T22:54:01.480Z,12.65
2017-12-12T22:56:29.755Z,11.52
2017-12-12T22:58:57.998Z,9.45
2017-12-12T23:01:27.766Z,10.98
2017-12-12T23:03:56.023Z,13.80
2017-12-12T23:06:25.037Z,12.13
2017-12-12T23:08:53.382Z,10.52
2017-12-12T23:11:21.624Z,10.15
2017-12-12T23:13:49.904Z,11.45
2017-12-12T23:16:18.165Z,14.43
2017-12-12T23:18:47.190Z,15.27
2017-12-12T23:21:15.466Z,13.35
2017-12-12T23:23:43.741Z,14.18
2017-12-12T23:26:11.979Z,10.75
2017-12-12T23:28:41.037Z,17.95
2017-12-12T23:31:09.286Z,10.00
2017-12-12T23:33:37.559Z,14.57
2017-12-12T23:36:05.819Z,12.20
2017-12-12T23:38:34.874Z,12.70
2017-12-12T23:41:04.087Z,13.55
2017-12-12T23:43:32.468Z,11.63
2017-12-12T23:46:00.711Z,14.38
2017-12-12T23:48:29.878Z,14.68
2017-12-12T23:50:58.140Z,11.32
2017-12-12T23:53:27.056Z,11.12
2017-12-12T23:55:55.645Z,11.95
2017-12-12T23:58:24.417Z,12.05
